• Join FlightAware (Why Join?)
  • Login
  • US Flag 
06:30AM EDT


 

Airport Tracker/Info


-or-


 

Live Flight TrackerFlight Track Log ✈ ASQ5738 ✈ 05-May-2013 ✈ KALB - KIAD

Flight Track Log - Related Links

Times and Time Zones

All times are in EDT time to prevent confusion due to time zone crossing. See the ASQ5738 flight status page for this flight to view local times or setup timezone preferences in your user account.

Time Position Orientation Groundspeed Altitude Reporting Facility
EDT Latitude Longitude Course Direction KTS MPH feet Rate Location/Type
10:12AM 42.7278 -73.8081 194° South 173 199 1,100  Level Boston Center
10:13AM 42.7000 -73.8528 230° Southwest 217 250 3,200 2,100 Climbing Boston Center
10:14AM 42.7428 -73.9414 303° West 257 296 5,900 2,340 Climbing Boston Center
10:15AM 42.4468 -74.1132 196° South  Level Estimated
10:15AM 42.7831 -74.0328 301° West 270 311 8,600  Level Boston Center
10:16AM 42.3711 -74.1906 198° South  Level Estimated
10:16AM 42.7878 -74.1433 273° West 276 318 10,700  Level Boston Center
10:17AM 42.2953 -74.2677 194° South  Level Estimated
10:17AM 42.7442 -74.2636 244° Southwest 326 375 11,900  Level Boston Center
10:18AM 42.6597 -74.3261 209° Southwest 340 391 13,400 1,500 Climbing Boston Center
10:19AM 42.5650 -74.2583 152° Southeast 334 384 15,000 1,500 Climbing Boston Center
10:20AM 42.4703 -74.1964 154° Southeast 360 414 16,400 1,440 Climbing Boston Center
10:21AM 42.3753 -74.1292 152° Southeast 384 442 17,900 1,380 Climbing Boston Center
10:22AM 42.2906 -74.0764 155° Southeast 384 442 19,200 1,320 Climbing Boston Center
10:23AM 42.1847 -74.0539 171° South 379 436 20,600 1,320 Climbing Boston Center
10:24AM 42.0797 -74.1044 200° South 368 423 21,900 1,200 Climbing Boston Center
10:25AM 41.9692 -74.1128 183° South 393 452 23,000 1,020 Climbing Boston Center
10:26AM 41.8592 -74.0847 169° South 393 452 24,000 720 Climbing Boston Center
10:27AM 41.7469 -74.0511 167° South 406 467 24,500 540 Climbing Boston Center
10:29AM 41.4797 -74.0772 184° South 408 470 25,800 480 Climbing New York Center
10:30AM 41.3728 -74.1772 215° Southwest 433 498 26,200 420 Climbing New York Center
10:31AM 41.2703 -74.2603 211° Southwest 465 535 26,700 480 Climbing New York Center
10:32AM 41.1633 -74.3594 215° Southwest 477 549 27,200 480 Climbing New York Center
10:33AM 41.0561 -74.4556 214° Southwest 483 556 27,700 360 Climbing New York Center
10:34AM 40.9447 -74.5539 214° Southwest 483 556 28,000 120 Climbing New York Center
10:35AM 40.8736 -74.6925 236° Southwest 462 532 28,000  Level New York Center
10:36AM 40.8164 -74.8428 243° Southwest 462 532 28,000  Level New York Center
10:37AM 40.7511 -74.9842 239° Southwest 457 526 28,000  Level New York Center
10:38AM 40.6878 -75.1197 238° Southwest 446 513 28,000  Level New York Center
10:39AM 40.6222 -75.2550 237° Southwest 446 513 28,000 -180 Level New York Center
10:40AM 40.5586 -75.3903 238° Southwest 446 513 27,700 -1,320 Descending New York Center
10:41AM 40.4950 -75.5253 238° Southwest 438 504 25,400 -2,340 Descending New York Center
10:42AM 40.4311 -75.6597 238° Southwest 438 504 23,100 -2,340 Descending New York Center
10:43AM 40.3694 -75.7889 238° Southwest 438 504 20,800 -1,620 Descending New York Center
10:44AM 40.2989 -75.9253 236° Southwest 432 497 20,000 -420 Descending New York Center
10:45AM 40.2414 -76.0461 238° Southwest 417 480 20,000 -420 Level New York Center
10:46AM 40.1842 -76.1642 238° Southwest 406 467 19,200 -840 Descending New York Center
10:48AM 40.0833 -76.3667 237° Southwest 364 419 17,800 -900 Descending Potomac TRACON
10:49AM 40.0333 -76.4667 237° Southwest 357 411 16,800 -1,080 Descending Potomac TRACON
10:50AM 39.9833 -76.5833 241° Southwest 351 404 15,700 -900 Descending Potomac TRACON
10:51AM 39.9333 -76.6833 237° Southwest 344 396 15,000 -420 Descending Potomac TRACON
10:52AM 39.9000 -76.7833 247° West 344 396 15,000  Level Potomac TRACON
10:53AM 39.8500 -76.8833 237° Southwest 347 399 15,000 -540 Level Potomac TRACON
10:54AM 39.8000 -77.0000 241° Southwest 341 392 14,000 -1,380 Descending Potomac TRACON
10:55AM 39.7500 -77.0833 232° Southwest 331 381 12,400 -1,800 Descending Potomac TRACON
10:56AM 39.7000 -77.1833 237° Southwest 323 372 10,600 -1,200 Descending Potomac TRACON
10:57AM 39.6667 -77.2833 247° West 323 372 10,000 -480 Descending Potomac TRACON
10:58AM 39.6000 -77.3333 210° Southwest 293 337 9,700 -720 Descending Potomac TRACON
10:59AM 39.5333 -77.3500 191° South 279 321 8,700 -1,020 Descending Potomac TRACON
11:00AM 39.4500 -77.3667 189° South 273 314 7,700 -1,020 Descending Potomac TRACON
11:01AM 39.3833 -77.3667 180° South 271 312 6,800 -1,020 Descending Potomac TRACON
11:02AM 39.3167 -77.3667 180° South 250 288 5,800 -1,140 Descending Potomac TRACON
11:03AM 39.2500 -77.3667 180° South 228 262 4,600 -900 Descending Potomac TRACON
11:04AM 39.1833 -77.3667 180° South 224 258 4,000 -300 Descending Potomac TRACON
11:05AM 39.1167 -77.3500 169° South 224 258 4,000  Level Potomac TRACON
11:06AM 39.0667 -77.3500 180° South 225 259 4,000  Level Potomac TRACON
11:07AM 39.0000 -77.3500 180° South 226 260 4,000  Level Potomac TRACON
11:08AM 38.9500 -77.3500 180° South 228 262 4,000  Level Potomac TRACON
11:09AM 38.8833 -77.3500 180° South 224 258 4,000  Level Potomac TRACON
11:10AM 38.8333 -77.3667 195° South 218 251 4,000 -360 Level Potomac TRACON
11:11AM 38.7667 -77.3667 180° South 221 254 3,300 -540 Descending Potomac TRACON
11:12AM 38.7167 -77.3667 180° South 208 239 3,000 -600 Descending Potomac TRACON
11:13AM 38.7167 -77.4333 270° West 188 216 2,200 -840 Descending Potomac TRACON